Startpagina
METAR-TAF:

METAR-TAF

Vliegvelden :

Ndjamena, Tsjaad

breedte: 12-08N, lengte: 015-02E, hoogte: 295 m

Actueel weer

Dit bericht is 45 minuten geleden gemaakt, om 19:00 UTC
Wind 7 kt uit het noorden
Temperatuur 25°C
Vochtigheid 12%
Druk 1010 hPa
Zicht 10 km of meer
geen wolken onder 1500 m en geen cumulonimbus

METAR: FTTJ 191900Z 01007KT CAVOK 25/M06 Q1010 NOSIG

Tijdstip: 20:45 (19:45 UTC)

Verwachting

Dit bericht is 2 uur en het 45 minuten geleden gemaakt, om 17:00 UTC
Verwachting geldig van 19 om 18 UTC tot 20 om 24 UTC
Wind 8 kt uit het noorden
Zicht: 7000 m
Tijdelijke
van 20 om 00 UTC tot 20 om 06 UTC
Zicht: 4000 m
verspreid stof
Tijdelijke
van 20 om 10 UTC tot 20 om 16 UTC
Zicht: 2500 m
verspreid stof

TAF: FTTJ 191700Z 1918/2024 35008KT 7000 NSC TEMPO 2000/2006 4000 DU TEMPO 2010/2016 2500 DU

Waarnemingen en weersverwachtingen van meer dan 4000 vliegvelden (METAR en TAF).

De beschikbare stations zijn de gele en rode punten op de kaart.

Ga met uw muis naar het station om de naam te zien.

Klik dan om waarnemingen en weersverwachtingen te zien.

kaart wijzigen: klik op de groene knoppen met een zwart kruis om in te zoomen, op de groene knop met een streepje om uit te zoomen of op de groene pijlen voor aangrenzende kaarten.


METAR-TAF: